sensor_id;sensor_type;location;lat;lon;timestamp;P1;durP1;ratioP1;P2;durP2;ratioP2
1569;SDS011;778;50.120;8.698;2024-02-21T00:01:26;8.30;;;4.30;;
1569;SDS011;778;50.120;8.698;2024-02-21T00:03:55;13.10;;;5.50;;
1569;SDS011;778;50.120;8.698;2024-02-21T00:06:23;11.30;;;4.67;;
1569;SDS011;778;50.120;8.698;2024-02-21T00:08:52;9.97;;;5.53;;
1569;SDS011;778;50.120;8.698;2024-02-21T00:11:21;11.40;;;5.00;;
1569;SDS011;778;50.120;8.698;2024-02-21T00:13:50;15.53;;;5.60;;
1569;SDS011;778;50.120;8.698;2024-02-21T00:16:20;13.13;;;5.10;;
1569;SDS011;778;50.120;8.698;2024-02-21T00:18:49;12.70;;;6.53;;
1569;SDS011;778;50.120;8.698;2024-02-21T00:21:18;10.83;;;5.63;;
1569;SDS011;778;50.120;8.698;2024-02-21T00:23:46;21.77;;;8.20;;
1569;SDS011;778;50.120;8.698;2024-02-21T00:26:17;11.60;;;5.10;;
1569;SDS011;778;50.120;8.698;2024-02-21T00:28:46;15.43;;;5.50;;
1569;SDS011;778;50.120;8.698;2024-02-21T00:31:14;14.30;;;5.47;;
1569;SDS011;778;50.120;8.698;2024-02-21T00:33:45;14.80;;;5.67;;
1569;SDS011;778;50.120;8.698;2024-02-21T00:36:13;12.20;;;7.40;;
1569;SDS011;778;50.120;8.698;2024-02-21T00:38:42;9.27;;;6.00;;
1569;SDS011;778;50.120;8.698;2024-02-21T00:41:11;12.27;;;5.93;;
1569;SDS011;778;50.120;8.698;2024-02-21T00:43:40;16.77;;;7.10;;
1569;SDS011;778;50.120;8.698;2024-02-21T00:46:09;9.40;;;6.10;;
1569;SDS011;778;50.120;8.698;2024-02-21T00:48:37;12.17;;;6.60;;
1569;SDS011;778;50.120;8.698;2024-02-21T00:51:08;15.63;;;6.30;;
1569;SDS011;778;50.120;8.698;2024-02-21T00:53:36;10.40;;;7.00;;
1569;SDS011;778;50.120;8.698;2024-02-21T00:56:05;10.97;;;6.40;;
1569;SDS011;778;50.120;8.698;2024-02-21T00:58:34;11.73;;;6.67;;
1569;SDS011;778;50.120;8.698;2024-02-21T01:01:03;20.20;;;8.10;;
1569;SDS011;778;50.120;8.698;2024-02-21T01:03:32;15.70;;;7.30;;
1569;SDS011;778;50.120;8.698;2024-02-21T01:06:00;16.00;;;7.07;;
1569;SDS011;778;50.120;8.698;2024-02-21T01:08:31;11.47;;;7.20;;
1569;SDS011;778;50.120;8.698;2024-02-21T01:10:59;14.67;;;7.90;;
1569;SDS011;778;50.120;8.698;2024-02-21T01:13:28;14.07;;;7.43;;
1569;SDS011;778;50.120;8.698;2024-02-21T01:15:57;18.50;;;7.97;;
1569;SDS011;778;50.120;8.698;2024-02-21T01:18:26;12.53;;;7.40;;
1569;SDS011;778;50.120;8.698;2024-02-21T01:20:55;17.60;;;8.83;;
1569;SDS011;778;50.120;8.698;2024-02-21T01:23:23;10.53;;;7.90;;
1569;SDS011;778;50.120;8.698;2024-02-21T01:25:54;13.00;;;7.63;;
1569;SDS011;778;50.120;8.698;2024-02-21T01:28:22;18.43;;;7.80;;
1569;SDS011;778;50.120;8.698;2024-02-21T01:30:51;17.07;;;7.97;;
1569;SDS011;778;50.120;8.698;2024-02-21T01:33:20;17.30;;;8.63;;
1569;SDS011;778;50.120;8.698;2024-02-21T01:35:49;20.33;;;8.80;;
1569;SDS011;778;50.120;8.698;2024-02-21T01:38:18;18.53;;;8.40;;
1569;SDS011;778;50.120;8.698;2024-02-21T01:40:47;12.00;;;8.60;;
1569;SDS011;778;50.120;8.698;2024-02-21T01:43:18;19.83;;;7.97;;
1569;SDS011;778;50.120;8.698;2024-02-21T01:45:48;15.10;;;7.47;;
1569;SDS011;778;50.120;8.698;2024-02-21T01:48:18;15.37;;;7.30;;
1569;SDS011;778;50.120;8.698;2024-02-21T01:50:47;14.93;;;8.50;;
1569;SDS011;778;50.120;8.698;2024-02-21T01:53:18;13.50;;;7.13;;
1569;SDS011;778;50.120;8.698;2024-02-21T01:55:49;11.37;;;7.30;;
1569;SDS011;778;50.120;8.698;2024-02-21T01:58:19;7.40;;;6.03;;
1569;SDS011;778;50.120;8.698;2024-02-21T02:00:48;13.10;;;8.00;;
1569;SDS011;778;50.120;8.698;2024-02-21T02:03:17;11.93;;;7.70;;
1569;SDS011;778;50.120;8.698;2024-02-21T02:05:46;12.43;;;8.37;;
1569;SDS011;778;50.120;8.698;2024-02-21T02:08:15;12.40;;;7.17;;
1569;SDS011;778;50.120;8.698;2024-02-21T02:10:45;17.10;;;7.90;;
1569;SDS011;778;50.120;8.698;2024-02-21T02:13:14;14.80;;;6.93;;
1569;SDS011;778;50.120;8.698;2024-02-21T02:15:45;16.77;;;7.97;;
1569;SDS011;778;50.120;8.698;2024-02-21T02:18:15;13.57;;;8.53;;
1569;SDS011;778;50.120;8.698;2024-02-21T02:20:45;15.90;;;7.73;;
1569;SDS011;778;50.120;8.698;2024-02-21T02:23:24;23.23;;;8.80;;
1569;SDS011;778;50.120;8.698;2024-02-21T02:25:53;10.43;;;7.87;;
1569;SDS011;778;50.120;8.698;2024-02-21T02:28:22;15.03;;;7.43;;
1569;SDS011;778;50.120;8.698;2024-02-21T02:30:51;13.63;;;7.67;;
1569;SDS011;778;50.120;8.698;2024-02-21T02:33:21;14.10;;;9.10;;
1569;SDS011;778;50.120;8.698;2024-02-21T02:35:50;10.43;;;6.73;;
1569;SDS011;778;50.120;8.698;2024-02-21T02:38:19;19.00;;;7.20;;
1569;SDS011;778;50.120;8.698;2024-02-21T02:40:49;15.40;;;8.03;;
1569;SDS011;778;50.120;8.698;2024-02-21T02:43:18;10.67;;;6.93;;
1569;SDS011;778;50.120;8.698;2024-02-21T02:45:46;19.73;;;9.67;;
1569;SDS011;778;50.120;8.698;2024-02-21T02:48:15;12.50;;;8.30;;
1569;SDS011;778;50.120;8.698;2024-02-21T02:50:46;13.93;;;7.43;;
1569;SDS011;778;50.120;8.698;2024-02-21T02:53:16;15.07;;;7.63;;
1569;SDS011;778;50.120;8.698;2024-02-21T02:55:44;12.87;;;7.03;;
1569;SDS011;778;50.120;8.698;2024-02-21T02:58:14;16.07;;;7.60;;
1569;SDS011;778;50.120;8.698;2024-02-21T03:00:43;21.83;;;8.53;;
1569;SDS011;778;50.120;8.698;2024-02-21T03:03:12;10.70;;;7.63;;
1569;SDS011;778;50.120;8.698;2024-02-21T03:05:41;16.77;;;8.30;;
1569;SDS011;778;50.120;8.698;2024-02-21T03:08:09;16.90;;;8.53;;
1569;SDS011;778;50.120;8.698;2024-02-21T03:10:38;13.70;;;7.90;;
1569;SDS011;778;50.120;8.698;2024-02-21T03:13:08;10.80;;;7.03;;
1569;SDS011;778;50.120;8.698;2024-02-21T03:15:38;13.63;;;8.23;;
1569;SDS011;778;50.120;8.698;2024-02-21T03:18:07;14.27;;;8.20;;
1569;SDS011;778;50.120;8.698;2024-02-21T03:20:36;14.07;;;7.73;;
1569;SDS011;778;50.120;8.698;2024-02-21T03:23:05;12.67;;;8.10;;
1569;SDS011;778;50.120;8.698;2024-02-21T03:25:33;11.07;;;7.03;;
1569;SDS011;778;50.120;8.698;2024-02-21T03:28:02;9.63;;;7.40;;
1569;SDS011;778;50.120;8.698;2024-02-21T03:30:31;8.70;;;7.53;;
1569;SDS011;778;50.120;8.698;2024-02-21T03:33:02;16.00;;;8.20;;
1569;SDS011;778;50.120;8.698;2024-02-21T03:35:31;12.03;;;9.67;;
1569;SDS011;778;50.120;8.698;2024-02-21T03:38:00;15.10;;;9.30;;
1569;SDS011;778;50.120;8.698;2024-02-21T03:40:28;13.00;;;8.40;;
1569;SDS011;778;50.120;8.698;2024-02-21T03:42:57;11.73;;;7.83;;
1569;SDS011;778;50.120;8.698;2024-02-21T03:45:26;13.40;;;8.80;;
1569;SDS011;778;50.120;8.698;2024-02-21T03:47:55;14.57;;;9.50;;
1569;SDS011;778;50.120;8.698;2024-02-21T03:50:25;20.10;;;8.87;;
1569;SDS011;778;50.120;8.698;2024-02-21T03:52:54;13.30;;;9.23;;
1569;SDS011;778;50.120;8.698;2024-02-21T03:55:23;17.43;;;8.97;;
1569;SDS011;778;50.120;8.698;2024-02-21T03:57:52;14.90;;;9.33;;
1569;SDS011;778;50.120;8.698;2024-02-21T04:00:21;20.73;;;9.50;;
1569;SDS011;778;50.120;8.698;2024-02-21T04:02:49;16.17;;;8.77;;
1569;SDS011;778;50.120;8.698;2024-02-21T04:05:18;15.67;;;9.97;;
1569;SDS011;778;50.120;8.698;2024-02-21T04:07:48;13.00;;;8.50;;
1569;SDS011;778;50.120;8.698;2024-02-21T04:10:17;13.40;;;8.50;;
1569;SDS011;778;50.120;8.698;2024-02-21T04:12:46;11.90;;;8.97;;
1569;SDS011;778;50.120;8.698;2024-02-21T04:15:16;13.90;;;8.77;;
1569;SDS011;778;50.120;8.698;2024-02-21T04:17:46;14.93;;;8.93;;
1569;SDS011;778;50.120;8.698;2024-02-21T04:20:15;12.97;;;8.10;;
1569;SDS011;778;50.120;8.698;2024-02-21T04:22:44;16.63;;;9.90;;
1569;SDS011;778;50.120;8.698;2024-02-21T04:25:15;21.07;;;8.17;;
1569;SDS011;778;50.120;8.698;2024-02-21T04:27:43;12.63;;;9.00;;
1569;SDS011;778;50.120;8.698;2024-02-21T04:30:12;13.80;;;8.20;;
1569;SDS011;778;50.120;8.698;2024-02-21T04:32:42;13.93;;;8.50;;
1569;SDS011;778;50.120;8.698;2024-02-21T04:35:10;9.90;;;8.50;;
1569;SDS011;778;50.120;8.698;2024-02-21T04:37:39;14.67;;;8.80;;
1569;SDS011;778;50.120;8.698;2024-02-21T04:40:08;16.53;;;8.33;;
1569;SDS011;778;50.120;8.698;2024-02-21T04:42:39;17.50;;;7.93;;
1569;SDS011;778;50.120;8.698;2024-02-21T04:45:08;13.60;;;7.50;;
1569;SDS011;778;50.120;8.698;2024-02-21T04:47:37;15.00;;;8.90;;
1569;SDS011;778;50.120;8.698;2024-02-21T04:50:06;15.80;;;8.77;;
1569;SDS011;778;50.120;8.698;2024-02-21T04:52:35;18.10;;;7.93;;
1569;SDS011;778;50.120;8.698;2024-02-21T04:55:04;13.77;;;8.20;;
1569;SDS011;778;50.120;8.698;2024-02-21T04:57:33;14.83;;;9.03;;
1569;SDS011;778;50.120;8.698;2024-02-21T05:00:04;13.13;;;6.53;;
1569;SDS011;778;50.120;8.698;2024-02-21T05:02:35;15.13;;;7.17;;
1569;SDS011;778;50.120;8.698;2024-02-21T05:05:04;13.50;;;8.10;;
1569;SDS011;778;50.120;8.698;2024-02-21T05:07:34;16.60;;;7.90;;
1569;SDS011;778;50.120;8.698;2024-02-21T05:10:03;15.80;;;7.80;;
1569;SDS011;778;50.120;8.698;2024-02-21T05:12:32;18.47;;;8.60;;
1569;SDS011;778;50.120;8.698;2024-02-21T05:15:01;17.60;;;8.70;;
1569;SDS011;778;50.120;8.698;2024-02-21T05:17:32;19.70;;;8.87;;
1569;SDS011;778;50.120;8.698;2024-02-21T05:20:01;20.47;;;8.43;;
1569;SDS011;778;50.120;8.698;2024-02-21T05:22:32;14.30;;;7.33;;
1569;SDS011;778;50.120;8.698;2024-02-21T05:25:01;15.33;;;7.40;;
1569;SDS011;778;50.120;8.698;2024-02-21T05:27:29;17.13;;;8.13;;
1569;SDS011;778;50.120;8.698;2024-02-21T05:29:58;14.30;;;9.20;;
1569;SDS011;778;50.120;8.698;2024-02-21T05:32:29;15.90;;;8.17;;
1569;SDS011;778;50.120;8.698;2024-02-21T05:34:57;13.90;;;8.30;;
1569;SDS011;778;50.120;8.698;2024-02-21T05:37:26;20.43;;;9.03;;
1569;SDS011;778;50.120;8.698;2024-02-21T05:39:55;13.20;;;7.97;;
1569;SDS011;778;50.120;8.698;2024-02-21T05:42:24;14.97;;;8.07;;
1569;SDS011;778;50.120;8.698;2024-02-21T05:44:52;13.67;;;7.60;;
1569;SDS011;778;50.120;8.698;2024-02-21T05:47:21;16.80;;;8.57;;
1569;SDS011;778;50.120;8.698;2024-02-21T05:49:51;16.87;;;9.03;;
1569;SDS011;778;50.120;8.698;2024-02-21T05:52:20;14.67;;;8.13;;
1569;SDS011;778;50.120;8.698;2024-02-21T05:54:50;15.73;;;8.57;;
1569;SDS011;778;50.120;8.698;2024-02-21T05:57:18;15.07;;;8.63;;
1569;SDS011;778;50.120;8.698;2024-02-21T05:59:47;12.80;;;8.30;;
1569;SDS011;778;50.120;8.698;2024-02-21T06:02:16;18.27;;;10.20;;
1569;SDS011;778;50.120;8.698;2024-02-21T06:04:45;14.53;;;7.60;;
1569;SDS011;778;50.120;8.698;2024-02-21T06:07:15;13.83;;;8.27;;
1569;SDS011;778;50.120;8.698;2024-02-21T06:09:44;18.53;;;8.47;;
1569;SDS011;778;50.120;8.698;2024-02-21T06:12:13;12.30;;;8.47;;
1569;SDS011;778;50.120;8.698;2024-02-21T06:14:42;16.30;;;7.70;;
1569;SDS011;778;50.120;8.698;2024-02-21T06:17:10;15.33;;;7.90;;
1569;SDS011;778;50.120;8.698;2024-02-21T06:19:39;15.93;;;7.63;;
1569;SDS011;778;50.120;8.698;2024-02-21T06:22:09;13.53;;;8.10;;
1569;SDS011;778;50.120;8.698;2024-02-21T06:24:40;15.07;;;8.80;;
1569;SDS011;778;50.120;8.698;2024-02-21T06:27:08;17.43;;;8.67;;
1569;SDS011;778;50.120;8.698;2024-02-21T06:29:37;12.97;;;7.43;;
1569;SDS011;778;50.120;8.698;2024-02-21T06:32:06;18.10;;;9.17;;
1569;SDS011;778;50.120;8.698;2024-02-21T06:34:35;12.80;;;7.87;;
1569;SDS011;778;50.120;8.698;2024-02-21T06:37:04;11.40;;;7.93;;
1569;SDS011;778;50.120;8.698;2024-02-21T06:39:33;16.27;;;8.17;;
1569;SDS011;778;50.120;8.698;2024-02-21T06:42:05;14.20;;;9.13;;
1569;SDS011;778;50.120;8.698;2024-02-21T06:44:33;18.07;;;8.70;;
1569;SDS011;778;50.120;8.698;2024-02-21T06:47:07;16.87;;;8.40;;
1569;SDS011;778;50.120;8.698;2024-02-21T06:49:35;12.90;;;9.63;;
1569;SDS011;778;50.120;8.698;2024-02-21T06:52:05;15.97;;;8.60;;
1569;SDS011;778;50.120;8.698;2024-02-21T06:54:33;18.77;;;9.20;;
1569;SDS011;778;50.120;8.698;2024-02-21T06:57:02;17.83;;;9.30;;
1569;SDS011;778;50.120;8.698;2024-02-21T06:59:32;18.90;;;9.23;;
1569;SDS011;778;50.120;8.698;2024-02-21T07:02:01;14.53;;;10.20;;
1569;SDS011;778;50.120;8.698;2024-02-21T07:04:30;14.00;;;9.17;;
1569;SDS011;778;50.120;8.698;2024-02-21T07:06:59;14.13;;;9.27;;
1569;SDS011;778;50.120;8.698;2024-02-21T07:09:28;11.97;;;9.17;;
1569;SDS011;778;50.120;8.698;2024-02-21T07:11:58;13.83;;;8.73;;
1569;SDS011;778;50.120;8.698;2024-02-21T07:14:29;17.33;;;9.30;;
1569;SDS011;778;50.120;8.698;2024-02-21T07:16:57;13.37;;;7.30;;
1569;SDS011;778;50.120;8.698;2024-02-21T07:19:26;13.90;;;8.90;;
1569;SDS011;778;50.120;8.698;2024-02-21T07:21:55;12.13;;;8.80;;
1569;SDS011;778;50.120;8.698;2024-02-21T07:24:24;15.07;;;7.17;;
1569;SDS011;778;50.120;8.698;2024-02-21T07:26:53;12.03;;;7.83;;
1569;SDS011;778;50.120;8.698;2024-02-21T07:29:22;14.73;;;9.10;;
1569;SDS011;778;50.120;8.698;2024-02-21T07:31:52;13.87;;;7.47;;
1569;SDS011;778;50.120;8.698;2024-02-21T07:34:21;19.27;;;7.77;;
1569;SDS011;778;50.120;8.698;2024-02-21T07:36:50;12.27;;;7.10;;
1569;SDS011;778;50.120;8.698;2024-02-21T07:39:19;17.73;;;7.53;;
1569;SDS011;778;50.120;8.698;2024-02-21T07:41:47;18.10;;;7.23;;
1569;SDS011;778;50.120;8.698;2024-02-21T07:44:16;13.80;;;6.93;;
1569;SDS011;778;50.120;8.698;2024-02-21T07:46:45;14.80;;;7.23;;
1569;SDS011;778;50.120;8.698;2024-02-21T07:49:15;16.97;;;7.03;;
1569;SDS011;778;50.120;8.698;2024-02-21T07:51:44;9.50;;;6.17;;
1569;SDS011;778;50.120;8.698;2024-02-21T07:54:13;17.63;;;7.10;;
1569;SDS011;778;50.120;8.698;2024-02-21T07:56:43;10.07;;;5.93;;
1569;SDS011;778;50.120;8.698;2024-02-21T07:59:12;11.23;;;6.67;;
1569;SDS011;778;50.120;8.698;2024-02-21T08:01:40;12.30;;;6.37;;
1569;SDS011;778;50.120;8.698;2024-02-21T08:04:11;12.97;;;6.30;;
1569;SDS011;778;50.120;8.698;2024-02-21T08:06:42;12.53;;;6.33;;
1569;SDS011;778;50.120;8.698;2024-02-21T08:09:11;11.03;;;6.60;;
1569;SDS011;778;50.120;8.698;2024-02-21T08:11:40;12.83;;;6.10;;
1569;SDS011;778;50.120;8.698;2024-02-21T08:14:09;12.23;;;5.70;;
1569;SDS011;778;50.120;8.698;2024-02-21T08:16:38;9.10;;;5.37;;
1569;SDS011;778;50.120;8.698;2024-02-21T08:19:06;11.87;;;6.17;;
1569;SDS011;778;50.120;8.698;2024-02-21T08:21:35;13.60;;;6.40;;
1569;SDS011;778;50.120;8.698;2024-02-21T08:24:05;8.70;;;5.53;;
1569;SDS011;778;50.120;8.698;2024-02-21T08:26:34;8.60;;;5.47;;
1569;SDS011;778;50.120;8.698;2024-02-21T08:29:03;8.73;;;5.30;;
1569;SDS011;778;50.120;8.698;2024-02-21T08:31:32;9.37;;;5.50;;
1569;SDS011;778;50.120;8.698;2024-02-21T08:34:01;10.07;;;5.63;;
1569;SDS011;778;50.120;8.698;2024-02-21T08:36:30;6.90;;;5.00;;
1569;SDS011;778;50.120;8.698;2024-02-21T08:39:00;11.10;;;5.70;;
1569;SDS011;778;50.120;8.698;2024-02-21T08:41:32;10.80;;;6.67;;
1569;SDS011;778;50.120;8.698;2024-02-21T08:44:22;9.40;;;5.70;;
1569;SDS011;778;50.120;8.698;2024-02-21T08:46:53;16.20;;;6.93;;
1569;SDS011;778;50.120;8.698;2024-02-21T08:49:23;10.17;;;5.63;;
1569;SDS011;778;50.120;8.698;2024-02-21T08:52:00;11.50;;;5.57;;
1569;SDS011;778;50.120;8.698;2024-02-21T08:54:30;9.07;;;6.03;;
1569;SDS011;778;50.120;8.698;2024-02-21T08:57:00;8.97;;;5.40;;
1569;SDS011;778;50.120;8.698;2024-02-21T08:59:30;11.07;;;5.80;;
1569;SDS011;778;50.120;8.698;2024-02-21T09:01:58;9.60;;;5.17;;
1569;SDS011;778;50.120;8.698;2024-02-21T09:04:29;10.43;;;5.23;;
1569;SDS011;778;50.120;8.698;2024-02-21T09:06:59;9.90;;;4.93;;
1569;SDS011;778;50.120;8.698;2024-02-21T09:09:27;12.63;;;6.00;;
1569;SDS011;778;50.120;8.698;2024-02-21T09:11:56;12.37;;;5.40;;
1569;SDS011;778;50.120;8.698;2024-02-21T09:14:33;7.57;;;5.53;;
1569;SDS011;778;50.120;8.698;2024-02-21T09:17:05;8.20;;;4.93;;
1569;SDS011;778;50.120;8.698;2024-02-21T09:19:35;6.70;;;4.83;;
1569;SDS011;778;50.120;8.698;2024-02-21T09:22:04;7.60;;;5.47;;
1569;SDS011;778;50.120;8.698;2024-02-21T09:24:32;9.63;;;4.73;;
1569;SDS011;778;50.120;8.698;2024-02-21T09:27:01;10.57;;;5.27;;
1569;SDS011;778;50.120;8.698;2024-02-21T09:29:30;9.50;;;5.20;;
1569;SDS011;778;50.120;8.698;2024-02-21T09:32:00;7.83;;;4.47;;
1569;SDS011;778;50.120;8.698;2024-02-21T09:34:30;9.43;;;4.97;;
1569;SDS011;778;50.120;8.698;2024-02-21T09:36:59;7.70;;;4.90;;
1569;SDS011;778;50.120;8.698;2024-02-21T09:39:27;7.17;;;4.83;;
1569;SDS011;778;50.120;8.698;2024-02-21T09:41:58;12.80;;;6.20;;
1569;SDS011;778;50.120;8.698;2024-02-21T09:44:32;8.60;;;5.20;;
1569;SDS011;778;50.120;8.698;2024-02-21T09:47:06;11.43;;;6.27;;
1569;SDS011;778;50.120;8.698;2024-02-21T09:49:38;6.53;;;4.90;;
1569;SDS011;778;50.120;8.698;2024-02-21T09:52:09;11.87;;;5.67;;
1569;SDS011;778;50.120;8.698;2024-02-21T09:54:40;7.93;;;5.00;;
1569;SDS011;778;50.120;8.698;2024-02-21T09:57:11;5.40;;;4.43;;
1569;SDS011;778;50.120;8.698;2024-02-21T09:59:41;11.27;;;4.60;;
1569;SDS011;778;50.120;8.698;2024-02-21T10:02:10;6.97;;;4.77;;
1569;SDS011;778;50.120;8.698;2024-02-21T10:04:39;12.50;;;4.90;;
1569;SDS011;778;50.120;8.698;2024-02-21T10:07:08;7.37;;;4.80;;
1569;SDS011;778;50.120;8.698;2024-02-21T10:09:37;9.43;;;5.40;;
1569;SDS011;778;50.120;8.698;2024-02-21T10:12:07;6.73;;;4.90;;
1569;SDS011;778;50.120;8.698;2024-02-21T10:14:38;6.77;;;4.63;;
1569;SDS011;778;50.120;8.698;2024-02-21T10:17:08;5.63;;;4.60;;
1569;SDS011;778;50.120;8.698;2024-02-21T10:19:42;7.33;;;5.33;;
1569;SDS011;778;50.120;8.698;2024-02-21T10:22:11;7.33;;;4.60;;
1569;SDS011;778;50.120;8.698;2024-02-21T10:24:39;9.17;;;4.37;;
1569;SDS011;778;50.120;8.698;2024-02-21T10:27:09;9.20;;;4.77;;
1569;SDS011;778;50.120;8.698;2024-02-21T10:29:39;7.20;;;4.57;;
1569;SDS011;778;50.120;8.698;2024-02-21T10:32:10;8.73;;;4.30;;
1569;SDS011;778;50.120;8.698;2024-02-21T10:34:41;11.80;;;4.70;;
1569;SDS011;778;50.120;8.698;2024-02-21T10:37:11;8.03;;;4.50;;
1569;SDS011;778;50.120;8.698;2024-02-21T10:39:40;10.47;;;4.30;;
1569;SDS011;778;50.120;8.698;2024-02-21T10:42:11;10.90;;;4.63;;
1569;SDS011;778;50.120;8.698;2024-02-21T10:44:40;9.43;;;4.10;;
1569;SDS011;778;50.120;8.698;2024-02-21T10:47:12;9.40;;;4.70;;
1569;SDS011;778;50.120;8.698;2024-02-21T10:49:44;8.00;;;4.30;;
1569;SDS011;778;50.120;8.698;2024-02-21T10:52:15;10.30;;;4.73;;
1569;SDS011;778;50.120;8.698;2024-02-21T10:54:48;9.83;;;4.80;;
1569;SDS011;778;50.120;8.698;2024-02-21T10:57:19;9.97;;;4.33;;
1569;SDS011;778;50.120;8.698;2024-02-21T10:59:50;11.23;;;4.63;;
1569;SDS011;778;50.120;8.698;2024-02-21T11:02:20;7.23;;;4.37;;
1569;SDS011;778;50.120;8.698;2024-02-21T11:04:49;10.30;;;5.13;;
1569;SDS011;778;50.120;8.698;2024-02-21T11:07:19;10.37;;;4.70;;
1569;SDS011;778;50.120;8.698;2024-02-21T11:09:51;12.60;;;5.17;;
1569;SDS011;778;50.120;8.698;2024-02-21T11:12:22;7.80;;;5.10;;
1569;SDS011;778;50.120;8.698;2024-02-21T11:14:52;15.10;;;5.77;;
1569;SDS011;778;50.120;8.698;2024-02-21T11:17:32;9.50;;;4.90;;
1569;SDS011;778;50.120;8.698;2024-02-21T11:20:15;9.00;;;5.33;;
1569;SDS011;778;50.120;8.698;2024-02-21T11:22:45;12.90;;;5.30;;
1569;SDS011;778;50.120;8.698;2024-02-21T11:25:21;7.50;;;4.60;;
1569;SDS011;778;50.120;8.698;2024-02-21T11:27:50;9.90;;;5.23;;
1569;SDS011;778;50.120;8.698;2024-02-21T11:30:26;13.33;;;5.60;;
1569;SDS011;778;50.120;8.698;2024-02-21T11:33:00;10.17;;;5.60;;
1569;SDS011;778;50.120;8.698;2024-02-21T11:35:33;7.83;;;4.30;;
1569;SDS011;778;50.120;8.698;2024-02-21T11:38:09;9.57;;;5.70;;
1569;SDS011;778;50.120;8.698;2024-02-21T11:40:41;10.53;;;4.73;;
1569;SDS011;778;50.120;8.698;2024-02-21T11:43:12;5.97;;;5.30;;
1569;SDS011;778;50.120;8.698;2024-02-21T11:45:40;11.57;;;5.80;;
1569;SDS011;778;50.120;8.698;2024-02-21T11:48:11;11.77;;;5.50;;
1569;SDS011;778;50.120;8.698;2024-02-21T11:50:39;8.83;;;4.80;;
1569;SDS011;778;50.120;8.698;2024-02-21T11:53:08;9.70;;;5.43;;
1569;SDS011;778;50.120;8.698;2024-02-21T11:55:37;12.57;;;5.10;;
1569;SDS011;778;50.120;8.698;2024-02-21T11:58:06;13.13;;;4.90;;
1569;SDS011;778;50.120;8.698;2024-02-21T12:00:35;9.20;;;4.90;;
1569;SDS011;778;50.120;8.698;2024-02-21T12:03:04;10.60;;;4.30;;
1569;SDS011;778;50.120;8.698;2024-02-21T12:05:34;8.63;;;4.80;;
1569;SDS011;778;50.120;8.698;2024-02-21T12:08:03;9.80;;;4.70;;
1569;SDS011;778;50.120;8.698;2024-02-21T12:10:33;8.93;;;5.00;;
1569;SDS011;778;50.120;8.698;2024-02-21T12:13:06;11.00;;;4.60;;
1569;SDS011;778;50.120;8.698;2024-02-21T12:15:35;6.30;;;4.00;;
1569;SDS011;778;50.120;8.698;2024-02-21T12:18:06;8.83;;;3.90;;
1569;SDS011;778;50.120;8.698;2024-02-21T12:20:36;10.77;;;4.77;;
1569;SDS011;778;50.120;8.698;2024-02-21T12:23:08;10.83;;;4.80;;
1569;SDS011;778;50.120;8.698;2024-02-21T12:25:38;15.53;;;5.50;;
1569;SDS011;778;50.120;8.698;2024-02-21T12:28:07;7.90;;;4.37;;
1569;SDS011;778;50.120;8.698;2024-02-21T12:30:36;9.40;;;4.80;;
1569;SDS011;778;50.120;8.698;2024-02-21T12:33:07;9.13;;;5.20;;
1569;SDS011;778;50.120;8.698;2024-02-21T12:35:37;12.57;;;5.20;;
1569;SDS011;778;50.120;8.698;2024-02-21T12:38:05;7.50;;;3.87;;
1569;SDS011;778;50.120;8.698;2024-02-21T12:40:34;7.00;;;4.60;;
1569;SDS011;778;50.120;8.698;2024-02-21T12:43:03;8.37;;;4.50;;
1569;SDS011;778;50.120;8.698;2024-02-21T12:45:32;7.40;;;4.30;;
1569;SDS011;778;50.120;8.698;2024-02-21T12:48:01;13.37;;;4.37;;
1569;SDS011;778;50.120;8.698;2024-02-21T12:50:31;11.27;;;5.13;;
1569;SDS011;778;50.120;8.698;2024-02-21T12:53:01;6.83;;;4.37;;
1569;SDS011;778;50.120;8.698;2024-02-21T12:55:39;7.20;;;4.00;;
1569;SDS011;778;50.120;8.698;2024-02-21T12:58:07;6.10;;;3.27;;
1569;SDS011;778;50.120;8.698;2024-02-21T13:00:36;7.13;;;3.87;;
1569;SDS011;778;50.120;8.698;2024-02-21T13:03:05;10.60;;;4.13;;
1569;SDS011;778;50.120;8.698;2024-02-21T13:05:34;10.77;;;4.70;;
1569;SDS011;778;50.120;8.698;2024-02-21T13:08:04;7.57;;;3.83;;
1569;SDS011;778;50.120;8.698;2024-02-21T13:10:33;9.37;;;3.93;;
1569;SDS011;778;50.120;8.698;2024-02-21T13:13:02;6.13;;;3.53;;
1569;SDS011;778;50.120;8.698;2024-02-21T13:15:31;5.87;;;4.20;;
1569;SDS011;778;50.120;8.698;2024-02-21T13:18:00;11.97;;;4.17;;
1569;SDS011;778;50.120;8.698;2024-02-21T13:20:29;6.10;;;3.70;;
1569;SDS011;778;50.120;8.698;2024-02-21T13:22:58;9.20;;;5.20;;
1569;SDS011;778;50.120;8.698;2024-02-21T13:25:29;13.17;;;4.70;;
1569;SDS011;778;50.120;8.698;2024-02-21T13:27:57;5.87;;;4.30;;
1569;SDS011;778;50.120;8.698;2024-02-21T13:30:26;5.93;;;3.73;;
1569;SDS011;778;50.120;8.698;2024-02-21T13:32:55;11.23;;;5.00;;
1569;SDS011;778;50.120;8.698;2024-02-21T13:35:24;9.63;;;4.10;;
1569;SDS011;778;50.120;8.698;2024-02-21T13:37:54;11.27;;;4.30;;
1569;SDS011;778;50.120;8.698;2024-02-21T13:40:23;11.37;;;4.20;;
1569;SDS011;778;50.120;8.698;2024-02-21T13:42:54;5.90;;;3.77;;
1569;SDS011;778;50.120;8.698;2024-02-21T13:45:22;7.73;;;3.40;;
1569;SDS011;778;50.120;8.698;2024-02-21T13:47:51;8.53;;;4.40;;
1569;SDS011;778;50.120;8.698;2024-02-21T13:50:21;8.17;;;3.87;;
1569;SDS011;778;50.120;8.698;2024-02-21T13:52:54;10.33;;;3.97;;
1569;SDS011;778;50.120;8.698;2024-02-21T13:55:22;12.13;;;4.17;;
1569;SDS011;778;50.120;8.698;2024-02-21T13:57:54;8.33;;;3.53;;
1569;SDS011;778;50.120;8.698;2024-02-21T14:00:23;14.47;;;3.57;;
1569;SDS011;778;50.120;8.698;2024-02-21T14:02:53;6.50;;;3.47;;
1569;SDS011;778;50.120;8.698;2024-02-21T14:05:24;10.30;;;3.10;;
1569;SDS011;778;50.120;8.698;2024-02-21T14:07:53;6.93;;;3.33;;
1569;SDS011;778;50.120;8.698;2024-02-21T14:10:22;11.40;;;4.00;;
1569;SDS011;778;50.120;8.698;2024-02-21T14:12:50;10.33;;;4.00;;
1569;SDS011;778;50.120;8.698;2024-02-21T14:15:21;6.70;;;3.17;;
1569;SDS011;778;50.120;8.698;2024-02-21T14:17:49;7.17;;;3.53;;
1569;SDS011;778;50.120;8.698;2024-02-21T14:20:18;8.47;;;3.20;;
1569;SDS011;778;50.120;8.698;2024-02-21T14:22:47;7.97;;;3.63;;
1569;SDS011;778;50.120;8.698;2024-02-21T14:25:16;6.70;;;4.10;;
1569;SDS011;778;50.120;8.698;2024-02-21T14:27:45;5.67;;;3.20;;
1569;SDS011;778;50.120;8.698;2024-02-21T14:30:14;8.07;;;3.53;;
1569;SDS011;778;50.120;8.698;2024-02-21T14:32:44;7.37;;;3.23;;
1569;SDS011;778;50.120;8.698;2024-02-21T14:35:13;6.10;;;3.20;;
1569;SDS011;778;50.120;8.698;2024-02-21T14:37:42;6.07;;;3.67;;
1569;SDS011;778;50.120;8.698;2024-02-21T14:40:12;6.23;;;3.53;;
1569;SDS011;778;50.120;8.698;2024-02-21T14:42:41;6.77;;;3.47;;
1569;SDS011;778;50.120;8.698;2024-02-21T14:45:10;7.43;;;2.93;;
1569;SDS011;778;50.120;8.698;2024-02-21T14:47:40;6.33;;;3.13;;
1569;SDS011;778;50.120;8.698;2024-02-21T14:50:10;3.50;;;2.93;;
1569;SDS011;778;50.120;8.698;2024-02-21T14:52:39;11.50;;;4.33;;
1569;SDS011;778;50.120;8.698;2024-02-21T14:55:10;7.33;;;3.60;;
1569;SDS011;778;50.120;8.698;2024-02-21T14:57:41;6.40;;;3.10;;
1569;SDS011;778;50.120;8.698;2024-02-21T15:00:11;4.83;;;3.00;;
1569;SDS011;778;50.120;8.698;2024-02-21T15:02:41;6.00;;;3.77;;
1569;SDS011;778;50.120;8.698;2024-02-21T15:05:11;7.37;;;3.30;;
1569;SDS011;778;50.120;8.698;2024-02-21T15:07:40;6.40;;;3.67;;
1569;SDS011;778;50.120;8.698;2024-02-21T15:10:09;10.80;;;4.07;;
1569;SDS011;778;50.120;8.698;2024-02-21T15:12:38;5.23;;;3.30;;
1569;SDS011;778;50.120;8.698;2024-02-21T15:15:07;9.67;;;3.20;;
1569;SDS011;778;50.120;8.698;2024-02-21T15:17:37;8.63;;;3.33;;
1569;SDS011;778;50.120;8.698;2024-02-21T15:20:06;8.77;;;3.40;;
1569;SDS011;778;50.120;8.698;2024-02-21T15:22:37;7.00;;;3.47;;
1569;SDS011;778;50.120;8.698;2024-02-21T15:25:06;5.40;;;3.37;;
1569;SDS011;778;50.120;8.698;2024-02-21T15:27:39;8.13;;;3.23;;
1569;SDS011;778;50.120;8.698;2024-02-21T15:30:09;9.30;;;5.50;;
1569;SDS011;778;50.120;8.698;2024-02-21T15:32:39;9.33;;;3.77;;
1569;SDS011;778;50.120;8.698;2024-02-21T15:35:10;8.47;;;3.30;;